createdAt,value
2018-11-01T00:02:15.771Z,10.48
2018-11-01T00:04:45.741Z,8.35
2018-11-01T00:07:15.668Z,8.55
2018-11-01T00:09:45.586Z,7.42
2018-11-01T00:12:15.540Z,13.32
2018-11-01T00:14:45.434Z,8.63
2018-11-01T00:17:15.692Z,15.28
2018-11-01T00:19:45.660Z,12.53
2018-11-01T00:22:15.583Z,13.53
2018-11-01T00:24:45.556Z,12.25
2018-11-01T00:27:15.446Z,10.30
2018-11-01T00:29:45.528Z,14.28
2018-11-01T00:32:15.449Z,14.43
2018-11-01T00:34:45.476Z,12.30
2018-11-01T00:37:16.260Z,15.05
2018-11-01T00:39:46.246Z,9.88
2018-11-01T00:42:16.226Z,12.75
2018-11-01T00:44:46.252Z,9.20
2018-11-01T00:47:16.192Z,11.75
2018-11-01T00:49:46.135Z,12.78
2018-11-01T00:52:16.161Z,13.50
2018-11-01T00:54:46.117Z,10.98
2018-11-01T00:57:15.968Z,10.43
2018-11-01T00:59:45.904Z,12.43
2018-11-01T01:02:16.377Z,11.35
2018-11-01T01:04:46.362Z,10.70
2018-11-01T01:07:16.272Z,12.68
2018-11-01T01:09:46.228Z,9.60
2018-11-01T01:12:16.262Z,15.90
2018-11-01T01:14:46.182Z,12.00
2018-11-01T01:17:16.068Z,13.85
2018-11-01T01:19:46.369Z,13.80
2018-11-01T01:22:16.254Z,11.90
2018-11-01T01:24:46.637Z,11.95
2018-11-01T01:27:16.525Z,16.90
2018-11-01T01:29:46.493Z,20.92
2018-11-01T01:32:16.463Z,15.90
2018-11-01T01:34:46.703Z,13.40
2018-11-01T01:37:17.093Z,18.20
2018-11-01T01:39:47.017Z,17.87
2018-11-01T01:42:16.995Z,23.30
2018-11-01T01:44:46.897Z,24.12
2018-11-01T01:47:16.800Z,24.20
2018-11-01T01:49:46.741Z,22.48
2018-11-01T01:52:16.730Z,24.47
2018-11-01T01:54:46.620Z,19.48
2018-11-01T01:57:17.103Z,22.25
2018-11-01T01:59:47.169Z,27.35
2018-11-01T02:02:17.530Z,27.77
2018-11-01T02:04:47.450Z,24.92
2018-11-01T02:07:17.596Z,29.07
2018-11-01T02:09:47.584Z,21.85
2018-11-01T02:12:17.472Z,24.85
2018-11-01T02:14:47.442Z,22.40
2018-11-01T02:17:17.376Z,22.62
2018-11-01T02:19:47.292Z,28.57
2018-11-01T02:22:17.187Z,37.80
2018-11-01T02:24:47.130Z,24.10
2018-11-01T02:27:17.217Z,30.62
2018-11-01T02:29:47.145Z,31.77
2018-11-01T02:32:17.104Z,37.00
2018-11-01T02:34:47.092Z,30.90
2018-11-01T02:37:17.028Z,32.13
2018-11-01T02:39:46.921Z,26.75
2018-11-01T02:42:23.221Z,37.15
2018-11-01T02:44:53.247Z,37.38
2018-11-01T02:47:23.142Z,33.13
2018-11-01T02:49:53.104Z,34.13
2018-11-01T02:52:23.412Z,28.30
2018-11-01T02:54:53.540Z,28.83
2018-11-01T02:57:23.528Z,28.83
2018-11-01T02:59:53.553Z,23.50
2018-11-01T03:02:23.413Z,27.50
2018-11-01T03:04:53.333Z,30.35
2018-11-01T03:07:23.364Z,28.10
2018-11-01T03:09:53.234Z,29.45
2018-11-01T03:12:23.137Z,27.00
2018-11-01T03:14:53.059Z,30.40
2018-11-01T03:17:23.045Z,33.33
2018-11-01T03:19:52.966Z,31.52
2018-11-01T03:22:22.957Z,35.13
2018-11-01T03:24:52.861Z,30.23
2018-11-01T03:27:22.813Z,35.70
2018-11-01T03:29:52.754Z,36.53
2018-11-01T03:32:22.730Z,38.88
2018-11-01T03:34:52.689Z,40.95
2018-11-01T03:37:22.640Z,29.05
2018-11-01T03:39:52.686Z,28.07
2018-11-01T03:42:22.586Z,34.18
2018-11-01T03:44:52.553Z,36.38
2018-11-01T03:47:22.450Z,30.60
2018-11-01T03:49:52.341Z,29.32
2018-11-01T03:52:23.350Z,35.73
2018-11-01T03:54:53.374Z,37.50
2018-11-01T03:57:24.223Z,35.23
2018-11-01T03:59:54.216Z,36.13
2018-11-01T04:02:24.144Z,36.30
2018-11-01T04:04:54.093Z,41.65
2018-11-01T04:07:24.138Z,33.58
2018-11-01T04:09:54.125Z,41.08
2018-11-01T04:12:24.024Z,32.42
2018-11-01T04:14:54.021Z,28.83
2018-11-01T04:17:23.901Z,34.60
2018-11-01T04:19:53.857Z,32.05
2018-11-01T04:22:23.777Z,35.43
2018-11-01T04:24:53.730Z,35.92
2018-11-01T04:27:23.745Z,46.02
2018-11-01T04:29:53.718Z,34.85
2018-11-01T04:32:24.171Z,33.88
2018-11-01T04:34:55.026Z,31.57
2018-11-01T04:37:25.542Z,29.57
2018-11-01T04:39:55.419Z,35.28
2018-11-01T04:42:25.322Z,39.15
2018-11-01T04:44:55.308Z,34.33
2018-11-01T04:47:25.224Z,31.60
2018-11-01T04:49:55.042Z,29.98
2018-11-01T04:52:24.953Z,35.35
2018-11-01T04:54:54.854Z,26.40
2018-11-01T04:57:24.864Z,32.42
2018-11-01T04:59:54.774Z,30.80
2018-11-01T05:02:24.721Z,32.98
2018-11-01T05:04:54.694Z,31.00
2018-11-01T05:07:24.576Z,30.92
2018-11-01T05:09:54.501Z,32.55
2018-11-01T05:12:24.443Z,32.42
2018-11-01T05:14:54.348Z,33.05
2018-11-01T05:17:24.322Z,46.68
2018-11-01T05:19:54.333Z,36.65
2018-11-01T05:22:24.234Z,34.15
2018-11-01T05:24:54.150Z,35.80
2018-11-01T05:27:24.101Z,39.95
2018-11-01T05:29:54.182Z,32.75
2018-11-01T05:32:24.113Z,36.65
2018-11-01T05:34:54.033Z,36.83
2018-11-01T05:37:23.937Z,35.90
2018-11-01T05:39:53.845Z,30.45
2018-11-01T05:42:23.804Z,40.17
2018-11-01T05:44:53.712Z,32.75
2018-11-01T05:47:23.682Z,36.73
2018-11-01T05:49:54.206Z,32.28
2018-11-01T05:52:24.642Z,31.30
2018-11-01T05:54:54.624Z,32.10
2018-11-01T05:57:24.614Z,34.38
2018-11-01T05:59:54.735Z,33.60
2018-11-01T06:02:28.684Z,34.67
2018-11-01T06:04:58.588Z,30.08
2018-11-01T06:07:35.881Z,29.67
2018-11-01T06:10:06.051Z,43.05
2018-11-01T06:12:36.385Z,44.83
2018-11-01T06:15:07.935Z,42.35
2018-11-01T06:17:37.916Z,41.37
2018-11-01T06:20:09.233Z,40.98
2018-11-01T06:22:39.176Z,43.98
2018-11-01T06:25:09.745Z,39.63
2018-11-01T06:27:39.637Z,41.23
2018-11-01T06:30:13.966Z,39.98
2018-11-01T06:32:44.836Z,40.28
2018-11-01T06:35:24.223Z,46.60
2018-11-01T06:37:54.136Z,40.55
2018-11-01T06:40:24.070Z,47.08
2018-11-01T06:42:53.982Z,42.35
2018-11-01T06:45:23.889Z,44.20
2018-11-01T06:47:53.808Z,61.23
2018-11-01T06:50:23.744Z,41.70
2018-11-01T06:52:53.684Z,42.62
2018-11-01T06:55:23.604Z,44.60
2018-11-01T06:57:53.685Z,39.58
2018-11-01T07:00:23.595Z,50.90
2018-11-01T07:02:53.900Z,49.15
2018-11-01T07:05:23.846Z,52.27
2018-11-01T07:07:53.817Z,45.12
2018-11-01T07:10:23.800Z,41.77
2018-11-01T07:12:53.693Z,38.55
2018-11-01T07:15:23.777Z,49.60
2018-11-01T07:17:53.672Z,48.52
2018-11-01T07:20:23.645Z,51.13
2018-11-01T07:22:53.575Z,50.28
2018-11-01T07:25:23.579Z,49.55
2018-11-01T07:27:53.458Z,42.33
2018-11-01T07:30:23.420Z,41.92
2018-11-01T07:32:53.364Z,51.85
2018-11-01T07:35:23.352Z,51.00
2018-11-01T07:37:53.321Z,43.92
2018-11-01T07:40:23.816Z,58.23
2018-11-01T07:42:53.732Z,40.25
2018-11-01T07:45:23.750Z,50.17
2018-11-01T07:47:53.724Z,46.08
2018-11-01T07:50:23.596Z,49.33
2018-11-01T07:52:53.656Z,49.27
2018-11-01T07:55:23.496Z,43.65
2018-11-01T07:57:53.429Z,50.50
2018-11-01T08:00:23.381Z,48.02
2018-11-01T08:02:53.268Z,45.55
2018-11-01T08:05:23.165Z,45.12
2018-11-01T08:07:53.300Z,49.67
2018-11-01T08:10:23.200Z,48.15
2018-11-01T08:12:53.204Z,52.65
2018-11-01T08:15:23.157Z,41.92
2018-11-01T08:17:53.196Z,41.73
2018-11-01T08:20:23.393Z,44.05
2018-11-01T08:22:53.085Z,46.10
2018-11-01T08:25:23.035Z,42.35
2018-11-01T08:27:52.974Z,54.13
2018-11-01T08:30:22.853Z,40.45
2018-11-01T08:32:52.882Z,42.88
2018-11-01T08:35:22.769Z,48.90
2018-11-01T08:37:52.721Z,43.20
2018-11-01T08:40:22.609Z,54.98
2018-11-01T08:42:52.549Z,51.88
2018-11-01T08:45:22.780Z,69.27
2018-11-01T08:47:52.749Z,49.53
2018-11-01T08:50:22.675Z,48.13
2018-11-01T08:52:52.605Z,44.33
2018-11-01T08:55:22.496Z,44.53
2018-11-01T08:57:52.392Z,49.33
2018-11-01T09:00:22.292Z,43.70
2018-11-01T09:02:52.217Z,44.45
2018-11-01T09:05:22.145Z,42.05
2018-11-01T09:07:52.095Z,44.23
2018-11-01T09:10:22.000Z,39.70
2018-11-01T09:12:51.871Z,40.08
2018-11-01T09:15:21.884Z,38.08
2018-11-01T09:17:51.901Z,41.98
2018-11-01T09:20:21.870Z,47.55
2018-11-01T09:22:51.817Z,38.00
2018-11-01T09:25:21.746Z,40.05
2018-11-01T09:27:51.673Z,34.58
2018-11-01T09:30:21.568Z,34.43
2018-11-01T09:32:51.509Z,37.53
2018-11-01T09:35:21.361Z,34.67
2018-11-01T09:37:51.247Z,32.93
2018-11-01T09:40:21.133Z,36.07
2018-11-01T09:42:51.335Z,31.10
2018-11-01T09:45:21.277Z,34.17
2018-11-01T09:47:51.434Z,35.93
2018-11-01T09:50:21.153Z,29.47
2018-11-01T09:52:51.067Z,30.30
2018-11-01T09:55:21.077Z,35.03
2018-11-01T09:57:50.962Z,36.07
2018-11-01T10:00:21.166Z,32.13
2018-11-01T10:02:51.200Z,29.03
2018-11-01T10:05:21.353Z,30.17
2018-11-01T10:07:51.269Z,36.37
2018-11-01T10:10:21.230Z,34.27
2018-11-01T10:12:51.124Z,34.43
2018-11-01T10:15:21.365Z,40.30
2018-11-01T10:17:51.599Z,39.47
2018-11-01T10:20:21.085Z,38.60
2018-11-01T10:22:51.017Z,38.40
2018-11-01T10:25:21.095Z,35.83
2018-11-01T10:27:51.247Z,31.47
2018-11-01T10:30:21.753Z,33.20
2018-11-01T10:32:51.656Z,29.27
2018-11-01T10:35:21.657Z,42.00
2018-11-01T10:37:51.532Z,40.07
2018-11-01T10:40:22.059Z,37.70
2018-11-01T10:42:52.036Z,38.00
2018-11-01T10:45:21.996Z,23.70
2018-11-01T10:47:51.953Z,26.43
2018-11-01T10:50:21.885Z,21.60
2018-11-01T10:52:51.806Z,24.33
2018-11-01T10:55:21.790Z,25.37
2018-11-01T10:57:51.780Z,19.37
2018-11-01T11:01:28.888Z,24.10
2018-11-01T11:03:58.823Z,22.70
2018-11-01T11:06:28.846Z,26.50
2018-11-01T11:08:58.730Z,20.70
2018-11-01T11:11:28.736Z,16.90
2018-11-01T11:13:58.663Z,18.87
2018-11-01T11:16:28.581Z,21.50
2018-11-01T11:18:58.498Z,21.87
2018-11-01T11:21:28.493Z,22.77
2018-11-01T11:23:58.420Z,22.83
2018-11-01T11:26:28.342Z,17.67
2018-11-01T11:28:58.485Z,17.60
2018-11-01T11:31:28.373Z,23.93
2018-11-01T11:33:58.360Z,20.87
2018-11-01T11:36:28.278Z,18.57
2018-11-01T11:38:58.196Z,17.80
2018-11-01T11:41:28.076Z,14.47
2018-11-01T11:43:57.964Z,15.73
2018-11-01T11:46:27.912Z,16.07
2018-11-01T11:48:57.795Z,17.77
2018-11-01T11:51:27.850Z,14.33
2018-11-01T11:53:57.693Z,17.50
2018-11-01T11:56:27.641Z,22.93
2018-11-01T11:58:57.566Z,23.10
2018-11-01T12:01:27.514Z,20.80
2018-11-01T12:03:57.459Z,14.90
2018-11-01T12:06:27.498Z,15.53
2018-11-01T12:08:57.395Z,14.53
2018-11-01T12:11:27.313Z,16.97
2018-11-01T12:13:57.393Z,23.00
2018-11-01T12:16:27.248Z,21.03
2018-11-01T12:18:57.222Z,20.53
2018-11-01T12:21:27.192Z,15.53
2018-11-01T12:23:57.157Z,19.30
2018-11-01T12:26:27.065Z,18.10
2018-11-01T12:28:57.071Z,19.57
2018-11-01T12:31:26.958Z,27.00
2018-11-01T12:33:56.845Z,23.30
2018-11-01T12:36:26.752Z,18.80
2018-11-01T12:38:56.721Z,21.83
2018-11-01T12:41:27.086Z,22.60
2018-11-01T12:43:57.877Z,26.07
2018-11-01T12:46:27.825Z,16.90
2018-11-01T12:48:57.740Z,22.33
2018-11-01T12:51:27.857Z,19.47
2018-11-01T12:53:58.321Z,17.70
2018-11-01T12:56:28.293Z,16.53
2018-11-01T12:58:58.246Z,23.27
2018-11-01T13:01:28.320Z,18.30
2018-11-01T13:03:58.204Z,20.73
2018-11-01T13:06:28.444Z,16.73
2018-11-01T13:08:58.429Z,46.87
2018-11-01T13:11:28.380Z,73.43
2018-11-01T13:13:58.272Z,63.20
2018-11-01T13:16:28.313Z,25.90
2018-11-01T13:18:58.295Z,23.67
2018-11-01T13:21:28.273Z,24.67
2018-11-01T13:23:58.237Z,23.63
2018-11-01T13:26:28.328Z,19.50
2018-11-01T13:28:58.728Z,22.70
2018-11-01T13:31:28.681Z,16.93
2018-11-01T13:33:58.629Z,15.83
2018-11-01T13:36:28.602Z,18.67
2018-11-01T13:38:58.468Z,17.90
2018-11-01T13:41:28.413Z,19.43
2018-11-01T13:43:58.472Z,16.70
2018-11-01T13:46:28.558Z,17.43
2018-11-01T13:48:58.476Z,20.73
2018-11-01T13:51:28.387Z,15.27
2018-11-01T13:53:58.426Z,16.80
2018-11-01T13:56:28.445Z,19.33
2018-11-01T13:58:58.317Z,17.43
2018-11-01T14:01:28.578Z,19.83
2018-11-01T14:03:58.496Z,20.27
2018-11-01T14:06:28.462Z,24.83
2018-11-01T14:08:58.380Z,20.90
2018-11-01T14:11:28.248Z,18.60
2018-11-01T14:13:58.549Z,17.80
2018-11-01T14:16:28.110Z,23.23
2018-11-01T14:18:58.072Z,20.23
2018-11-01T14:21:28.105Z,36.33
2018-11-01T14:23:57.992Z,26.33
2018-11-01T14:26:27.914Z,38.33
2018-11-01T14:28:57.826Z,35.73
2018-11-01T14:31:27.744Z,41.17
2018-11-01T14:33:57.695Z,30.83
2018-11-01T14:36:27.658Z,29.10
2018-11-01T14:38:57.553Z,35.13
2018-11-01T14:41:27.471Z,26.07
2018-11-01T14:43:57.397Z,28.93
2018-11-01T14:46:27.357Z,20.07
2018-11-01T14:48:57.248Z,19.40
2018-11-01T14:51:27.144Z,29.30
2018-11-01T14:53:58.023Z,26.20
2018-11-01T14:56:28.674Z,18.40
2018-11-01T14:58:58.691Z,23.00
2018-11-01T15:01:27.258Z,17.93
2018-11-01T15:03:57.148Z,20.63
2018-11-01T15:06:27.067Z,19.27
2018-11-01T15:08:56.985Z,27.40
2018-11-01T15:11:27.000Z,29.50
2018-11-01T15:13:56.897Z,26.47
2018-11-01T15:16:26.801Z,31.73
2018-11-01T15:18:57.274Z,21.77
2018-11-01T15:21:27.280Z,22.23
2018-11-01T15:23:57.200Z,18.80
2018-11-01T15:26:27.138Z,21.50
2018-11-01T15:28:57.034Z,30.77
2018-11-01T15:31:27.020Z,18.90
2018-11-01T15:33:56.964Z,31.13
2018-11-01T15:36:27.089Z,19.30
2018-11-01T15:38:57.164Z,37.07
2018-11-01T15:41:27.109Z,28.40
2018-11-01T15:43:56.997Z,24.70
2018-11-01T15:46:26.900Z,27.77
2018-11-01T15:48:56.872Z,21.60
2018-11-01T15:51:27.004Z,23.37
2018-11-01T15:53:56.920Z,23.50
2018-11-01T15:56:26.895Z,25.00
2018-11-01T15:58:56.785Z,19.47
2018-11-01T16:01:26.741Z,31.33
2018-11-01T16:03:56.814Z,23.17
2018-11-01T16:06:27.027Z,25.13
2018-11-01T16:08:57.094Z,29.40
2018-11-01T16:11:27.146Z,33.10
2018-11-01T16:13:57.061Z,27.10
2018-11-01T16:16:26.962Z,39.83
2018-11-01T16:18:56.961Z,44.67
2018-11-01T16:21:26.994Z,52.20
2018-11-01T16:23:56.905Z,58.67
2018-11-01T16:26:26.800Z,47.70
2018-11-01T16:28:57.017Z,44.50
2018-11-01T16:31:26.967Z,46.40
2018-11-01T16:33:56.855Z,49.97
2018-11-01T16:36:26.793Z,42.83
2018-11-01T16:38:56.669Z,66.57
2018-11-01T16:41:26.584Z,49.07
2018-11-01T16:43:56.504Z,54.77
2018-11-01T16:46:26.388Z,46.03
2018-11-01T16:48:56.389Z,52.20
2018-11-01T16:51:26.763Z,48.70
2018-11-01T16:53:56.672Z,49.23
2018-11-01T16:56:26.698Z,45.00
2018-11-01T16:58:56.637Z,44.70
2018-11-01T17:01:26.601Z,37.30
2018-11-01T17:03:56.632Z,44.30
2018-11-01T17:06:26.561Z,52.23
2018-11-01T17:08:56.476Z,37.37
2018-11-01T17:11:26.502Z,40.60
2018-11-01T17:13:56.478Z,41.20
2018-11-01T17:16:26.412Z,43.27
2018-11-01T17:18:56.311Z,39.30
2018-11-01T17:21:26.305Z,37.70
2018-11-01T17:23:56.261Z,42.33
2018-11-01T17:26:26.225Z,35.77
2018-11-01T17:28:56.240Z,38.83
2018-11-01T17:31:26.174Z,44.00
2018-11-01T17:33:56.426Z,35.67
2018-11-01T17:36:26.424Z,42.67
2018-11-01T17:38:56.366Z,32.77
2018-11-01T17:41:26.314Z,39.63
2018-11-01T17:43:56.406Z,32.60
2018-11-01T17:46:26.241Z,31.93
2018-11-01T17:48:56.201Z,32.70
2018-11-01T17:51:26.437Z,29.73
2018-11-01T17:53:56.413Z,29.90
2018-11-01T17:56:26.306Z,29.65
2018-11-01T17:58:56.312Z,32.90
2018-11-01T18:01:26.208Z,34.50
2018-11-01T18:03:56.143Z,31.73
2018-11-01T18:06:26.149Z,39.63
2018-11-01T18:08:56.156Z,37.63
2018-11-01T18:11:26.062Z,25.80
2018-11-01T18:13:56.388Z,36.67
2018-11-01T18:16:26.312Z,24.43
2018-11-01T18:18:56.218Z,27.47
2018-11-01T18:21:26.161Z,31.43
2018-11-01T18:23:56.142Z,36.60
2018-11-01T18:26:26.217Z,35.97
2018-11-01T18:28:56.153Z,33.43
2018-11-01T18:31:26.092Z,33.67
2018-11-01T18:33:56.054Z,32.70
2018-11-01T18:36:26.149Z,26.87
2018-11-01T18:38:56.110Z,36.03
2018-11-01T18:41:26.173Z,39.70
2018-11-01T18:43:56.159Z,29.77
2018-11-01T18:46:26.105Z,26.90
2018-11-01T18:48:56.043Z,30.30
2018-11-01T18:51:25.984Z,33.00
2018-11-01T18:53:56.326Z,47.85
2018-11-01T18:56:26.193Z,48.52
2018-11-01T18:58:56.086Z,34.70
2018-11-01T19:01:26.120Z,37.95
2018-11-01T19:03:56.006Z,58.87
2018-11-01T19:06:25.933Z,61.93
2018-11-01T19:08:55.827Z,36.87
2018-11-01T19:11:26.068Z,43.20
2018-11-01T19:13:56.023Z,38.28
2018-11-01T19:16:25.913Z,36.60
2018-11-01T19:18:55.801Z,34.23
2018-11-01T19:21:25.795Z,47.10
2018-11-01T19:23:55.758Z,40.05
2018-11-01T19:26:25.706Z,40.52
2018-11-01T19:28:55.737Z,34.43
2018-11-01T19:31:25.637Z,38.15
2018-11-01T19:33:55.663Z,43.13
2018-11-01T19:36:25.648Z,35.92
2018-11-01T19:38:55.567Z,42.88
2018-11-01T19:41:25.501Z,36.33
2018-11-01T19:43:55.469Z,40.88
2018-11-01T19:46:25.714Z,38.58
2018-11-01T19:48:55.700Z,51.40
2018-11-01T19:51:25.978Z,32.30
2018-11-01T19:53:55.998Z,29.90
2018-11-01T19:56:26.038Z,26.82
2018-11-01T19:58:55.949Z,27.77
2018-11-01T20:01:25.957Z,25.77
2018-11-01T20:03:56.107Z,24.12
2018-11-01T20:06:26.319Z,31.65
2018-11-01T20:08:57.021Z,28.17
2018-11-01T20:11:26.872Z,19.10
2018-11-01T20:13:56.847Z,17.45
2018-11-01T20:16:26.740Z,20.80
2018-11-01T20:18:56.714Z,14.07
2018-11-01T20:21:27.057Z,18.52
2018-11-01T20:23:56.992Z,20.15
2018-11-01T20:26:26.897Z,27.82
2018-11-01T20:28:57.040Z,17.95
2018-11-01T20:31:27.457Z,17.17
2018-11-01T20:33:57.192Z,19.15
2018-11-01T20:36:27.163Z,18.52
2018-11-01T20:38:57.113Z,13.95
2018-11-01T20:41:27.054Z,24.52
2018-11-01T20:43:57.012Z,15.85
2018-11-01T20:46:27.181Z,15.70
2018-11-01T20:48:57.116Z,14.65
2018-11-01T20:51:27.048Z,19.17
2018-11-01T20:53:56.941Z,17.95
2018-11-01T20:56:27.133Z,20.05
2018-11-01T20:58:57.072Z,15.43
2018-11-01T21:01:26.989Z,16.20
2018-11-01T21:03:57.272Z,17.95
2018-11-01T21:06:27.149Z,21.17
2018-11-01T21:08:57.112Z,20.40
2018-11-01T21:11:27.271Z,13.48
2018-11-01T21:13:57.089Z,14.05
2018-11-01T21:16:26.977Z,12.73
2018-11-01T21:18:56.891Z,11.10
2018-11-01T21:21:26.768Z,15.55
2018-11-01T21:23:56.717Z,12.93
2018-11-01T21:26:26.624Z,13.22
2018-11-01T21:28:56.595Z,13.45
2018-11-01T21:31:26.541Z,11.60
2018-11-01T21:33:56.466Z,17.90
2018-11-01T21:36:26.801Z,9.50
2018-11-01T21:38:56.773Z,18.30
2018-11-01T21:41:26.939Z,13.65
2018-11-01T21:43:56.820Z,13.18
2018-11-01T21:46:26.732Z,14.28
2018-11-01T21:48:56.801Z,10.03
2018-11-01T21:51:26.709Z,12.50
2018-11-01T21:53:56.665Z,11.30
2018-11-01T21:56:26.662Z,9.38
2018-11-01T21:58:56.632Z,13.62
2018-11-01T22:01:26.543Z,19.02
2018-11-01T22:03:56.726Z,14.05
2018-11-01T22:06:26.648Z,14.10
2018-11-01T22:08:56.563Z,13.50
2018-11-01T22:11:26.469Z,16.93
2018-11-01T22:13:56.400Z,13.55
2018-11-01T22:16:26.302Z,18.62
2018-11-01T22:18:56.204Z,15.25
2018-11-01T22:21:26.255Z,11.50
2018-11-01T22:23:56.193Z,13.30
2018-11-01T22:26:26.133Z,10.10
2018-11-01T22:28:56.025Z,10.23
2018-11-01T22:31:26.040Z,10.95
2018-11-01T22:33:55.933Z,11.03
2018-11-01T22:36:25.862Z,12.40
2018-11-01T22:38:55.853Z,14.38
2018-11-01T22:41:26.446Z,13.72
2018-11-01T22:43:56.353Z,10.88
2018-11-01T22:46:26.310Z,10.35
2018-11-01T22:48:56.189Z,14.00
2018-11-01T22:51:26.105Z,10.05
2018-11-01T22:53:56.051Z,16.57
2018-11-01T22:56:25.945Z,14.38
2018-11-01T22:58:55.845Z,12.80
2018-11-01T23:01:25.770Z,10.30
2018-11-01T23:03:55.718Z,14.55
2018-11-01T23:06:25.629Z,14.75
2018-11-01T23:08:55.535Z,14.23
2018-11-01T23:11:25.717Z,13.35
2018-11-01T23:13:55.657Z,13.38
2018-11-01T23:16:25.568Z,11.93
2018-11-01T23:18:55.492Z,13.03
2018-11-01T23:21:25.473Z,15.40
2018-11-01T23:23:55.423Z,17.95
2018-11-01T23:26:25.471Z,16.17
2018-11-01T23:28:55.249Z,13.20
2018-11-01T23:31:25.207Z,15.18
2018-11-01T23:33:55.447Z,12.75
2018-11-01T23:36:24.547Z,12.25
2018-11-01T23:38:59.794Z,14.43
2018-11-01T23:41:35.219Z,10.58
2018-11-01T23:44:10.440Z,13.35
2018-11-01T23:46:45.979Z,11.12
2018-11-01T23:49:17.233Z,12.58
2018-11-01T23:51:52.557Z,16.20
2018-11-01T23:54:22.460Z,12.10
2018-11-01T23:56:52.381Z,12.07
2018-11-01T23:59:22.289Z,10.98
